Time;durP1;ratioP1;P1;durP2;ratioP2;P2;SDS_P1;SDS_P2;PMS_P1;PMS_P2;Temp;Humidity;BMP_temperature;BMP_pressure;BME280_temperature;BME280_humidity;BME280_pressure;Samples;Min_cycle;Max_cycle;Signal;HPM_P1;HPM_P2
2021/04/06 00:02:25;;;;;;;3.53;1.10;;;0.50;78.10;;;;;;4878874;29;20040;-78
2021/04/06 00:04:54;;;;;;;3.45;1.33;;;0.30;78.10;;;;;;4880073;29;20041;-80
2021/04/06 00:07:23;;;;;;;3.45;0.80;;;0.30;77.90;;;;;;4880344;29;20048;-83
2021/04/06 00:09:56;;;;;;;4.78;0.80;;;0.30;77.80;;;;;;4880666;29;20499;-79
2021/04/06 00:12:25;;;;;;;3.50;1.05;;;0.30;77.90;;;;;;4893557;29;20044;-79
2021/04/06 00:14:54;;;;;;;8.80;1.80;;;0.30;77.40;;;;;;4879347;29;20040;-79
2021/04/06 00:17:22;;;;;;;4.43;1.10;;;0.50;77.00;;;;;;4879539;29;20490;-79
2021/04/06 00:19:51;;;;;;;5.57;2.25;;;0.50;76.50;;;;;;4878945;29;20041;-79
2021/04/06 00:22:19;;;;;;;4.50;0.90;;;0.50;77.30;;;;;;4879051;29;20037;-80
2021/04/06 00:24:48;;;;;;;3.15;0.90;;;0.50;76.20;;;;;;4884600;29;20059;-78
2021/04/06 00:27:16;;;;;;;7.78;1.80;;;0.50;76.20;;;;;;4883902;29;20036;-78
2021/04/06 00:29:47;;;;;;;4.53;0.75;;;0.40;76.30;;;;;;4877484;29;20040;-79
2021/04/06 00:32:16;;;;;;;2.20;0.53;;;0.30;76.10;;;;;;4879459;29;20440;-78
2021/04/06 00:34:43;;;;;;;6.97;1.40;;;0.40;77.20;;;;;;4886204;29;20056;-79
2021/04/06 00:37:15;;;;;;;6.93;1.08;;;0.40;77.20;;;;;;4877974;29;20033;-78
2021/04/06 00:39:43;;;;;;;3.78;0.88;;;0.40;77.30;;;;;;4878516;29;20044;-79
2021/04/06 00:42:26;;;;;;;8.35;1.17;;;0.40;76.40;;;;;;4878639;29;20400;-79
2021/04/06 00:44:55;;;;;;;3.58;0.70;;;0.40;76.10;;;;;;4878701;29;20037;-79
2021/04/06 00:47:29;;;;;;;4.00;1.38;;;0.50;76.30;;;;;;4877867;29;20044;-78
2021/04/06 00:49:57;;;;;;;5.95;0.52;;;0.40;76.60;;;;;;4878796;29;20037;-79
2021/04/06 00:52:26;;;;;;;4.13;1.30;;;0.30;77.20;;;;;;4879134;29;20506;-79
2021/04/06 00:54:55;;;;;;;4.53;1.23;;;0.30;77.70;;;;;;4877609;29;20169;-79
2021/04/06 00:57:30;;;;;;;4.60;0.95;;;0.30;77.70;;;;;;4877869;29;20029;-79
2021/04/06 01:00:17;;;;;;;6.15;1.05;;;0.10;77.90;;;;;;4886198;29;20052;-79
2021/04/06 01:03:02;;;;;;;7.63;0.80;;;0.00;79.10;;;;;;4880010;29;20045;-79
2021/04/06 01:05:34;;;;;;;3.05;0.50;;;-0.10;79.60;;;;;;4879407;29;20029;-79
2021/04/06 01:08:04;;;;;;;5.82;0.68;;;-0.20;79.80;;;;;;4879621;29;20044;-79
2021/04/06 01:10:32;;;;;;;4.72;0.73;;;-0.30;79.80;;;;;;4878749;29;20036;-79
2021/04/06 01:12:58;;;;;;;3.00;0.70;;;-0.30;79.80;;;;;;4878791;29;20041;-79
2021/04/06 01:15:26;;;;;;;3.10;0.70;;;-0.20;80.00;;;;;;4879736;29;20049;-78
2021/04/06 01:17:53;;;;;;;5.10;0.77;;;-0.30;80.30;;;;;;4884562;29;20032;-78
2021/04/06 01:20:20;;;;;;;4.35;0.60;;;-0.30;80.30;;;;;;4897160;29;20048;-78
2021/04/06 01:22:52;;;;;;;4.03;0.60;;;-0.20;80.00;;;;;;4882627;29;20444;-79
2021/04/06 01:25:24;;;;;;;4.80;0.85;;;-0.10;79.40;;;;;;4878426;29;20478;-79
2021/04/06 01:28:04;;;;;;;5.15;0.80;;;-0.10;79.40;;;;;;4879128;29;20037;-79
2021/04/06 01:30:45;;;;;;;6.90;0.57;;;-0.10;79.40;;;;;;4879302;29;20045;-80
2021/04/06 01:33:22;;;;;;;5.70;1.10;;;0.00;79.50;;;;;;4878025;29;20471;-79
2021/04/06 01:35:51;;;;;;;9.52;1.27;;;0.00;79.50;;;;;;4879115;29;20467;-80
2021/04/06 01:38:19;;;;;;;6.78;0.75;;;0.10;79.00;;;;;;4877662;29;20045;-80
2021/04/06 01:40:46;;;;;;;5.05;1.08;;;0.10;78.70;;;;;;4892795;29;20056;-79
2021/04/06 01:43:15;;;;;;;3.55;0.68;;;0.10;79.20;;;;;;4877851;29;20037;-79
2021/04/06 01:45:45;;;;;;;7.13;0.85;;;0.00;79.10;;;;;;4880956;29;20398;-80
2021/04/06 01:48:14;;;;;;;2.88;0.90;;;0.10;79.30;;;;;;4881435;29;20052;-80
2021/04/06 01:50:43;;;;;;;4.78;0.60;;;0.10;79.40;;;;;;4881884;29;20041;-80
2021/04/06 01:53:10;;;;;;;8.65;0.80;;;0.10;79.20;;;;;;4882034;29;20476;-79
2021/04/06 01:55:39;;;;;;;5.13;0.93;;;0.10;79.50;;;;;;4891171;29;20045;-80
2021/04/06 01:58:06;;;;;;;4.38;0.63;;;0.20;79.20;;;;;;4882144;29;20072;-80
2021/04/06 02:00:49;;;;;;;5.25;1.17;;;0.30;79.10;;;;;;4880619;29;20049;-80
2021/04/06 02:03:16;;;;;;;7.97;1.02;;;0.30;79.10;;;;;;4881136;29;20049;-80
2021/04/06 02:05:45;;;;;;;4.32;0.85;;;0.30;78.80;;;;;;4881479;29;20486;-80
2021/04/06 02:08:15;;;;;;;5.07;0.98;;;0.40;78.50;;;;;;4879966;29;20044;-80
2021/04/06 02:10:43;;;;;;;3.75;0.88;;;0.50;78.70;;;;;;4882634;29;20041;-81
2021/04/06 02:13:14;;;;;;;12.00;1.10;;;0.50;78.50;;;;;;4882198;29;20043;-81
2021/04/06 02:15:41;;;;;;;;;;;0.50;78.70;;;;;;4881587;29;20044;-80
2021/04/06 02:18:07;;;;;;;6.03;1.15;;;0.50;78.90;;;;;;4881738;29;20354;-80
2021/04/06 02:20:34;;;;;;;6.53;1.33;;;0.40;79.20;;;;;;4881040;29;20489;-80
2021/04/06 02:23:02;;;;;;;5.75;1.70;;;0.40;79.40;;;;;;4891382;29;20040;-80
2021/04/06 02:25:30;;;;;;;7.22;1.30;;;0.50;79.40;;;;;;4881673;29;20395;-79
2021/04/06 02:27:57;;;;;;;1.88;0.70;;;0.50;79.80;;;;;;4881572;29;20047;-80
2021/04/06 02:30:30;;;;;;;8.82;1.20;;;0.60;78.90;;;;;;4886727;29;20470;-80
2021/04/06 02:33:02;;;;;;;10.30;1.67;;;0.60;79.30;;;;;;4885047;29;20037;-80
2021/04/06 02:35:28;;;;;;;6.10;2.05;;;0.60;79.40;;;;;;4897818;29;20061;-79
2021/04/06 02:37:55;;;;;;;5.57;1.40;;;0.50;79.60;;;;;;4880866;29;20029;-79
2021/04/06 02:40:25;;;;;;;4.30;1.10;;;0.50;79.80;;;;;;4880187;29;20530;-80
2021/04/06 02:42:55;;;;;;;9.18;1.23;;;0.50;80.10;;;;;;4888737;29;20039;-80
2021/04/06 02:45:25;;;;;;;6.27;1.27;;;0.50;80.30;;;;;;4880037;29;20402;-81
2021/04/06 02:48:09;;;;;;;11.15;1.10;;;0.50;81.00;;;;;;4880828;29;20495;-80
2021/04/06 02:50:36;;;;;;;6.55;1.40;;;0.50;80.80;;;;;;4880024;29;20048;-79
2021/04/06 02:53:08;;;;;;;7.93;3.47;;;0.60;81.10;;;;;;4879159;29;20434;-80
2021/04/06 02:55:35;;;;;;;5.93;1.42;;;0.70;81.20;;;;;;4881270;29;20045;-80
2021/04/06 02:58:13;;;;;;;9.88;1.60;;;0.70;81.20;;;;;;4880785;29;20037;-80
2021/04/06 03:00:40;;;;;;;7.07;1.95;;;0.70;81.70;;;;;;4888850;29;20044;-79
2021/04/06 03:03:23;;;;;;;8.25;1.55;;;0.60;81.60;;;;;;4879819;29;20037;-79
2021/04/06 03:06:04;;;;;;;8.82;1.40;;;0.60;82.70;;;;;;4880296;29;20407;-79
2021/04/06 03:08:31;;;;;;;9.63;1.80;;;0.50;82.70;;;;;;4889222;29;20071;-79
2021/04/06 03:10:58;;;;;;;4.43;1.23;;;0.40;83.30;;;;;;4885675;29;20497;-79
2021/04/06 03:13:26;;;;;;;11.00;2.22;;;0.30;83.90;;;;;;4886850;29;20041;-80
2021/04/06 03:15:54;;;;;;;6.95;1.88;;;0.30;84.60;;;;;;4884723;29;20037;-79
2021/04/06 03:18:40;;;;;;;6.35;1.40;;;0.20;84.60;;;;;;4887199;29;20048;-79
2021/04/06 03:21:08;;;;;;;8.20;1.60;;;0.20;85.30;;;;;;4888999;29;20037;-78
2021/04/06 03:23:35;;;;;;;3.95;1.38;;;0.10;86.30;;;;;;4893031;29;20045;-79
2021/04/06 03:26:04;;;;;;;10.13;2.13;;;0.10;86.90;;;;;;4894441;29;20037;-79
2021/04/06 03:28:36;;;;;;;5.60;2.10;;;0.10;87.90;;;;;;4892969;29;20423;-80
2021/04/06 03:31:20;;;;;;;7.38;2.45;;;0.20;87.60;;;;;;4900373;29;20509;-79
2021/04/06 03:33:48;;;;;;;9.20;1.55;;;0.30;87.70;;;;;;4898518;29;20036;-79
2021/04/06 03:36:23;;;;;;;6.82;1.48;;;0.40;87.20;;;;;;4885674;29;20033;-79
2021/04/06 03:38:52;;;;;;;9.32;1.75;;;0.50;86.80;;;;;;4893713;29;20056;-79
2021/04/06 03:41:21;;;;;;;6.28;1.20;;;0.50;86.90;;;;;;4880552;29;20044;-79
2021/04/06 03:43:47;;;;;;;6.30;1.38;;;0.50;87.00;;;;;;4880071;29;20032;-79
2021/04/06 03:46:22;;;;;;;6.75;1.63;;;0.60;87.70;;;;;;4879812;29;20391;-79
2021/04/06 03:48:50;;;;;;;10.35;2.75;;;0.50;88.00;;;;;;4889429;29;20037;-79
2021/04/06 03:51:30;;;;;;;4.90;1.33;;;0.50;88.10;;;;;;4879889;29;20044;-78
2021/04/06 03:53:56;;;;;;;4.30;1.77;;;0.50;88.10;;;;;;4878398;29;20499;-78
2021/04/06 03:56:31;;;;;;;9.57;2.00;;;0.50;88.60;;;;;;4878833;29;20048;-78
2021/04/06 03:58:58;;;;;;;11.63;2.25;;;0.50;88.70;;;;;;4879145;29;20068;-79
2021/04/06 04:01:28;;;;;;;11.55;3.70;;;0.50;88.80;;;;;;4880275;29;20033;-78
2021/04/06 04:03:55;;;;;;;75.28;33.00;;;0.50;89.10;;;;;;4883550;29;20382;-79
2021/04/06 04:06:29;;;;;;;43.95;17.73;;;0.50;89.30;;;;;;4881274;29;20037;-79
2021/04/06 04:08:56;;;;;;;107.35;43.00;;;0.50;89.50;;;;;;4879125;29;20040;-78
2021/04/06 04:11:23;;;;;;;36.45;13.50;;;0.50;89.70;;;;;;4880066;29;20025;-79
2021/04/06 04:13:49;;;;;;;85.40;29.90;;;0.40;90.00;;;;;;4879293;29;20041;-79
2021/04/06 04:16:15;;;;;;;228.07;80.95;;;0.40;90.30;;;;;;4883531;29;20033;-81
2021/04/06 04:18:42;;;;;;;192.38;69.85;;;0.30;90.50;;;;;;4882903;29;20035;-79
2021/04/06 04:21:12;;;;;;;49.92;17.95;;;0.30;90.60;;;;;;4895631;29;20044;-80
2021/04/06 04:23:39;;;;;;;225.07;85.15;;;0.40;90.80;;;;;;4888659;29;20041;-80
2021/04/06 04:26:05;;;;;;;132.90;56.70;;;0.40;90.40;;;;;;4880178;29;20037;-79
2021/04/06 04:28:32;;;;;;;79.85;35.17;;;0.40;90.60;;;;;;4889914;29;20044;-78
2021/04/06 04:31:01;;;;;;;51.72;18.23;;;0.30;90.90;;;;;;4897053;29;20056;-78
2021/04/06 04:33:27;;;;;;;264.05;106.07;;;0.40;91.20;;;;;;4881675;29;20040;-78
2021/04/06 04:35:53;;;;;;;138.82;58.40;;;0.40;90.90;;;;;;4878931;29;20029;-79
2021/04/06 04:38:19;;;;;;;31.05;11.75;;;0.40;91.40;;;;;;4880341;29;20041;-79
2021/04/06 04:40:45;;;;;;;180.77;68.35;;;0.50;91.20;;;;;;4897614;29;20036;-79
2021/04/06 04:43:13;;;;;;;140.55;54.63;;;0.50;90.80;;;;;;4879291;29;20045;-78
2021/04/06 04:45:40;;;;;;;49.28;18.30;;;0.60;90.90;;;;;;4878934;29;20040;-79
2021/04/06 04:48:07;;;;;;;63.95;21.85;;;0.70;90.80;;;;;;4886877;29;20053;-80
2021/04/06 04:50:33;;;;;;;36.83;12.27;;;0.70;90.50;;;;;;4879622;29;20051;-79
2021/04/06 04:53:00;;;;;;;63.22;22.83;;;0.70;90.50;;;;;;4878482;29;20040;-78
2021/04/06 04:55:26;;;;;;;12.88;4.97;;;0.80;90.60;;;;;;4891463;29;20052;-78
2021/04/06 04:57:53;;;;;;;22.52;7.53;;;0.80;90.20;;;;;;4877798;29;20115;-80
2021/04/06 05:00:21;;;;;;;27.85;10.73;;;0.90;90.10;;;;;;4878837;29;20470;-79
2021/04/06 05:02:47;;;;;;;31.08;12.43;;;0.80;90.10;;;;;;4877451;29;20400;-79
2021/04/06 05:05:17;;;;;;;12.45;4.60;;;0.80;90.00;;;;;;4879291;29;20033;-79
2021/04/06 05:07:44;;;;;;;41.60;17.25;;;0.80;90.10;;;;;;4878887;29;20037;-82
2021/04/06 05:10:13;;;;;;;11.25;4.47;;;0.90;90.30;;;;;;4877397;29;20053;-79
2021/04/06 05:12:41;;;;;;;14.30;5.07;;;0.90;90.30;;;;;;4879171;29;20391;-80
2021/04/06 05:15:09;;;;;;;12.00;4.90;;;0.90;89.90;;;;;;4890674;29;20041;-79
2021/04/06 05:17:35;;;;;;;12.23;4.13;;;1.00;90.10;;;;;;4878839;29;20082;-79
2021/04/06 05:20:04;;;;;;;17.88;5.88;;;1.00;90.00;;;;;;4879042;29;20037;-79
2021/04/06 05:22:31;;;;;;;28.08;9.45;;;1.00;89.40;;;;;;4882367;29;20052;-79
2021/04/06 05:24:57;;;;;;;14.05;4.85;;;1.10;89.10;;;;;;4882640;29;20068;-80
2021/04/06 05:27:23;;;;;;;27.23;9.18;;;1.10;89.40;;;;;;4882509;29;20037;-80
2021/04/06 05:29:50;;;;;;;10.20;2.63;;;1.20;88.40;;;;;;4882255;29;20040;-80
2021/04/06 05:32:16;;;;;;;11.45;2.90;;;1.10;88.10;;;;;;4881413;29;20037;-79
2021/04/06 05:34:42;;;;;;;14.60;3.80;;;1.20;89.00;;;;;;4882862;29;20040;-79
2021/04/06 05:37:09;;;;;;;12.73;4.80;;;1.20;88.70;;;;;;4881734;29;20041;-80
2021/04/06 05:39:35;;;;;;;6.55;3.08;;;1.30;88.40;;;;;;4881646;29;20049;-79
2021/04/06 05:42:02;;;;;;;9.82;3.42;;;1.30;88.20;;;;;;4882670;29;20501;-79
2021/04/06 05:44:28;;;;;;;9.32;2.15;;;1.30;88.30;;;;;;4882376;29;20033;-80
2021/04/06 05:46:59;;;;;;;10.00;3.13;;;1.40;87.90;;;;;;4886451;29;20040;-79
2021/04/06 05:49:31;;;;;;;8.60;2.80;;;1.40;87.30;;;;;;4884081;29;20060;-80
2021/04/06 05:51:58;;;;;;;7.03;3.05;;;1.50;86.60;;;;;;4880531;29;20115;-80
2021/04/06 05:54:25;;;;;;;7.13;3.90;;;1.70;86.40;;;;;;4883900;29;20052;-77
2021/04/06 05:56:52;;;;;;;9.48;3.38;;;1.60;85.40;;;;;;4881738;29;20033;-77
2021/04/06 05:59:18;;;;;;;7.55;2.63;;;1.50;85.50;;;;;;4882327;29;20033;-77
2021/04/06 06:01:46;;;;;;;10.80;2.80;;;1.40;85.40;;;;;;4881902;29;20045;-77
2021/04/06 06:04:16;;;;;;;22.05;4.78;;;1.40;85.80;;;;;;4882457;29;20025;-76
2021/04/06 06:06:43;;;;;;;10.18;3.15;;;1.40;86.00;;;;;;4886683;29;20040;-79
2021/04/06 06:09:11;;;;;;;8.52;2.97;;;1.40;86.10;;;;;;4888769;29;20036;-80
2021/04/06 06:12:02;;;;;;;9.68;3.05;;;1.50;86.40;;;;;;4883618;29;20041;-76
2021/04/06 06:14:29;;;;;;;7.93;2.58;;;1.60;85.50;;;;;;4883638;29;20037;-78
2021/04/06 06:16:56;;;;;;;9.35;3.80;;;1.80;85.00;;;;;;4882314;29;20048;-78
2021/04/06 06:19:31;;;;;;;11.48;3.22;;;2.10;82.80;;;;;;4888291;29;20048;-77
2021/04/06 06:22:15;;;;;;;11.68;4.28;;;2.40;82.50;;;;;;4888594;29;20049;-78
2021/04/06 06:24:47;;;;;;;8.48;3.05;;;2.60;81.20;;;;;;4882610;29;20033;-78
2021/04/06 06:27:41;;;;;;;16.50;5.18;;;3.10;78.70;;;;;;4883003;29;20037;-77
2021/04/06 06:30:37;;;;;;;7.50;1.77;;;2.50;78.70;;;;;;4891498;29;20036;-78
2021/04/06 06:33:22;;;;;;;7.40;2.83;;;2.20;81.00;;;;;;4887451;29;20029;-78
2021/04/06 06:35:53;;;;;;;8.93;2.78;;;1.80;81.50;;;;;;4882750;29;20032;-77
2021/04/06 06:38:30;;;;;;;12.50;3.63;;;1.70;82.50;;;;;;4883818;29;20040;-79
2021/04/06 06:41:04;;;;;;;8.35;3.03;;;1.60;83.60;;;;;;4888655;29;20414;-82
2021/04/06 06:43:30;;;;;;;6.50;2.38;;;1.60;84.00;;;;;;4903505;29;20045;-85
2021/04/06 06:45:56;;;;;;;10.52;4.75;;;1.70;84.20;;;;;;4902651;29;20029;-83
2021/04/06 06:48:31;;;;;;;12.68;3.00;;;1.70;83.90;;;;;;4903327;29;20090;-85
2021/04/06 06:50:59;;;;;;;8.60;2.67;;;1.80;84.00;;;;;;4903266;29;20051;-84
2021/04/06 06:53:38;;;;;;;11.50;2.65;;;1.80;84.00;;;;;;4902009;29;20037;-82
2021/04/06 06:56:07;;;;;;;9.23;5.00;;;1.80;84.50;;;;;;4904255;29;20017;-84
2021/04/06 06:58:41;;;;;;;11.38;5.00;;;1.80;84.30;;;;;;4905062;29;20035;-81
2021/04/06 07:01:25;;;;;;;10.52;3.72;;;1.60;84.90;;;;;;4904421;29;20033;-80
2021/04/06 07:04:12;;;;;;;20.58;10.60;;;1.50;85.80;;;;;;4904281;29;20029;-81
2021/04/06 07:06:40;;;;;;;7.47;4.20;;;1.50;86.00;;;;;;4889416;29;20049;-84
2021/04/06 07:09:29;;;;;;;24.70;9.43;;;1.70;86.80;;;;;;4886336;29;20462;-84
2021/04/06 07:11:58;;;;;;;26.85;11.35;;;1.70;85.50;;;;;;4899248;29;20140;-81
2021/04/06 07:14:26;;;;;;;11.23;4.25;;;1.70;85.70;;;;;;4882683;29;20037;-84
2021/04/06 07:16:58;;;;;;;11.18;3.22;;;1.80;84.90;;;;;;4881653;29;20501;-84
2021/04/06 07:19:25;;;;;;;12.55;2.70;;;1.80;85.60;;;;;;4883037;29;20036;-84
2021/04/06 07:21:54;;;;;;;7.50;2.53;;;1.70;84.90;;;;;;4882077;29;20475;-86
2021/04/06 07:24:25;;;;;;;11.20;2.53;;;1.70;85.30;;;;;;4881585;29;20060;-85
2021/04/06 07:26:52;;;;;;;11.57;2.83;;;1.80;85.20;;;;;;4882559;29;20045;-84
2021/04/06 07:29:20;;;;;;;12.82;3.10;;;1.90;85.60;;;;;;4882251;29;20473;-85
2021/04/06 07:31:47;;;;;;;5.65;2.38;;;2.00;85.20;;;;;;4882419;29;20506;-85
2021/04/06 07:34:16;;;;;;;12.07;2.78;;;2.00;84.90;;;;;;4882536;29;20037;-84
2021/04/06 07:36:44;;;;;;;5.78;2.65;;;2.10;84.80;;;;;;4882652;29;20036;-85
2021/04/06 07:39:12;;;;;;;9.77;2.38;;;2.30;84.40;;;;;;4882700;29;20033;-85
2021/04/06 07:41:44;;;;;;;8.90;3.00;;;2.40;84.30;;;;;;4882050;29;20040;-84
2021/04/06 07:44:13;;;;;;;11.10;3.00;;;2.50;83.80;;;;;;4882474;29;20032;-83
2021/04/06 07:46:42;;;;;;;8.10;2.67;;;2.70;82.70;;;;;;4883244;29;20025;-80
2021/04/06 07:49:09;;;;;;;10.90;2.88;;;2.90;82.10;;;;;;4886564;29;20053;-83
2021/04/06 07:51:47;;;;;;;10.85;3.60;;;3.10;81.50;;;;;;4899891;29;20504;-87
2021/04/06 07:54:21;;;;;;;5.25;2.35;;;3.00;81.00;;;;;;4899595;29;20040;-88
2021/04/06 07:57:04;;;;;;;8.48;2.72;;;2.90;80.50;;;;;;4884767;29;20040;-86
2021/04/06 07:59:33;;;;;;;4.75;1.98;;;3.00;81.30;;;;;;4892657;29;20032;-87
2021/04/06 08:02:01;;;;;;;10.13;3.03;;;3.20;80.70;;;;;;4883576;29;20471;-86
2021/04/06 08:04:47;;;;;;;7.93;2.42;;;3.30;80.50;;;;;;4896536;29;20044;-87
2021/04/06 08:07:20;;;;;;;8.60;3.30;;;3.40;80.10;;;;;;4889170;29;20033;-87
2021/04/06 08:09:47;;;;;;;6.68;3.10;;;3.30;80.50;;;;;;4884312;29;20025;-86
2021/04/06 08:12:22;;;;;;;9.07;3.53;;;3.70;78.90;;;;;;4893495;29;20036;-87
2021/04/06 08:15:04;;;;;;;10.93;3.60;;;4.20;77.60;;;;;;4890994;29;20044;-88
2021/04/06 08:17:31;;;;;;;7.07;3.70;;;4.40;76.20;;;;;;4884135;29;20037;-86
2021/04/06 08:20:07;;;;;;;6.20;2.42;;;4.30;75.90;;;;;;4890249;29;20041;-87
2021/04/06 08:22:51;;;;;;;7.30;3.22;;;4.10;76.00;;;;;;4880673;29;20119;-87
2021/04/06 08:25:23;;;;;;;12.95;3.25;;;4.10;76.20;;;;;;4879454;29;20045;-88
2021/04/06 08:28:01;;;;;;;7.80;2.30;;;4.10;76.10;;;;;;4879892;29;20047;-87
2021/04/06 08:30:36;;;;;;;7.25;2.90;;;4.00;76.30;;;;;;4880958;29;20045;-87
2021/04/06 08:33:07;;;;;;;7.47;3.10;;;3.90;76.40;;;;;;4879534;29;20029;-87
2021/04/06 08:35:46;;;;;;;12.23;4.43;;;3.90;77.60;;;;;;4880232;29;20383;-87
2021/04/06 08:38:25;;;;;;;10.38;3.70;;;3.60;78.20;;;;;;4880494;29;20037;-87
2021/04/06 08:40:54;;;;;;;12.15;3.05;;;3.50;78.50;;;;;;4879115;29;20123;-87
2021/04/06 08:43:30;;;;;;;8.95;4.15;;;3.60;78.40;;;;;;4879887;29;20044;-86
2021/04/06 08:45:59;;;;;;;12.25;4.07;;;3.70;78.20;;;;;;4879795;29;20033;-87
2021/04/06 08:48:58;;;;;;;9.05;2.90;;;3.90;77.60;;;;;;4882314;29;20067;-87
2021/04/06 08:51:52;;;;;;;10.77;3.38;;;3.80;78.30;;;;;;4882183;29;20045;-86
2021/04/06 08:54:22;;;;;;;9.90;4.38;;;3.90;78.00;;;;;;4877628;29;20414;-85
2021/04/06 08:56:54;;;;;;;7.55;3.13;;;4.00;76.70;;;;;;4879515;29;20032;-87
2021/04/06 08:59:33;;;;;;;6.88;2.80;;;3.80;77.90;;;;;;4895880;29;20390;-83
2021/04/06 09:02:09;;;;;;;9.85;3.60;;;3.60;78.20;;;;;;4880657;29;20037;-88
2021/04/06 09:04:37;;;;;;;8.35;3.33;;;3.70;79.00;;;;;;4880236;29;20048;-88
2021/04/06 09:07:25;;;;;;;7.07;3.22;;;3.80;79.20;;;;;;4879208;29;20029;-86
2021/04/06 09:10:01;;;;;;;8.07;3.13;;;3.90;79.10;;;;;;4878839;29;20041;-85
2021/04/06 09:12:27;;;;;;;7.80;2.70;;;4.00;78.90;;;;;;4879134;29;20059;-82
2021/04/06 09:14:55;;;;;;;5.68;3.38;;;3.90;80.20;;;;;;4879502;29;20033;-85
2021/04/06 09:17:32;;;;;;;13.65;5.15;;;3.90;81.30;;;;;;4879494;29;20040;-85
2021/04/06 09:20:15;;;;;;;9.75;4.00;;;3.90;81.30;;;;;;4878795;29;20361;-83
2021/04/06 09:22:50;;;;;;;13.02;3.67;;;4.00;82.90;;;;;;4880927;29;20033;-84
2021/04/06 09:25:25;;;;;;;11.52;4.80;;;4.00;83.80;;;;;;4878768;29;20041;-85
2021/04/06 09:28:05;;;;;;;14.07;5.07;;;3.70;84.60;;;;;;4877971;29;20033;-84
2021/04/06 09:30:36;;;;;;;13.18;3.95;;;3.40;87.00;;;;;;4879159;29;20483;-86
2021/04/06 09:33:04;;;;;;;;;;;3.30;89.40;;;;;;4879203;29;20356;-85
2021/04/06 09:35:31;;;;;;;9.90;3.67;;;3.00;90.20;;;;;;4878769;29;19919;-86
2021/04/06 09:37:59;;;;;;;10.95;3.75;;;2.80;91.30;;;;;;4890203;29;20037;-85
2021/04/06 09:40:33;;;;;;;9.98;4.30;;;2.70;91.50;;;;;;4880691;29;20037;-84
2021/04/06 09:43:00;;;;;;;10.18;3.65;;;2.60;92.80;;;;;;4878091;29;20053;-83
2021/04/06 09:45:28;;;;;;;14.80;4.43;;;2.60;92.40;;;;;;4878471;29;20048;-83
2021/04/06 09:47:54;;;;;;;11.85;5.75;;;2.50;92.00;;;;;;4893452;29;20430;-83
2021/04/06 09:50:22;;;;;;;14.88;4.93;;;2.60;93.10;;;;;;4878367;29;20403;-85
2021/04/06 09:52:48;;;;;;;12.40;4.28;;;2.80;92.40;;;;;;4886079;29;20041;-83
2021/04/06 09:55:15;;;;;;;12.05;6.38;;;2.60;91.90;;;;;;4884980;29;20068;-84
2021/04/06 09:57:47;;;;;;;11.85;5.07;;;2.60;92.70;;;;;;4879187;29;20041;-82
2021/04/06 10:00:17;;;;;;;11.95;6.85;;;2.70;92.80;;;;;;4879704;29;20045;-83
2021/04/06 10:03:00;;;;;;;16.05;5.20;;;2.70;92.70;;;;;;4878344;29;20053;-83
2021/04/06 10:05:27;;;;;;;8.95;3.90;;;2.80;92.80;;;;;;4879006;29;20126;-84
2021/04/06 10:07:53;;;;;;;12.18;4.72;;;2.80;93.20;;;;;;4884108;29;20037;-83
2021/04/06 10:10:23;;;;;;;10.20;6.03;;;2.90;93.10;;;;;;4882616;29;20037;-84
2021/04/06 10:12:50;;;;;;;10.75;3.75;;;2.90;93.30;;;;;;4880105;29;20399;-83
2021/04/06 10:15:18;;;;;;;7.68;3.47;;;3.10;92.40;;;;;;4895537;29;20035;-83
2021/04/06 10:17:45;;;;;;;6.28;3.28;;;3.20;92.40;;;;;;4895008;29;20017;-81
2021/04/06 10:20:34;;;;;;;9.70;2.92;;;3.30;92.50;;;;;;4888250;29;20378;-83
2021/04/06 10:23:01;;;;;;;10.77;3.58;;;3.30;92.90;;;;;;4881995;29;20293;-83
2021/04/06 10:25:36;;;;;;;12.93;3.53;;;3.30;92.40;;;;;;4882115;29;20033;-83
2021/04/06 10:28:05;;;;;;;16.70;4.95;;;3.20;92.80;;;;;;4881310;29;20041;-85
2021/04/06 10:30:59;;;;;;;12.00;4.65;;;3.50;91.40;;;;;;4882060;29;20479;-85
2021/04/06 10:33:38;;;;;;;10.48;3.30;;;3.90;90.50;;;;;;4882119;29;20162;-85
2021/04/06 10:36:07;;;;;;;8.65;3.42;;;4.50;85.80;;;;;;4882714;29;20044;-84
2021/04/06 10:38:37;;;;;;;7.85;2.70;;;5.00;82.00;;;;;;4900019;29;20037;-83
2021/04/06 10:41:12;;;;;;;5.60;3.47;;;5.30;79.90;;;;;;4882167;29;20075;-83
2021/04/06 10:43:44;;;;;;;6.38;2.88;;;5.30;73.40;;;;;;4881744;29;20064;-82
2021/04/06 10:46:16;;;;;;;4.55;1.90;;;5.10;71.70;;;;;;4880952;29;20410;-83
2021/04/06 10:48:49;;;;;;;5.13;1.88;;;4.90;72.40;;;;;;4880183;29;20053;-79
2021/04/06 10:51:20;;;;;;;3.63;1.60;;;5.00;73.60;;;;;;4881219;29;20049;-83
2021/04/06 10:53:55;;;;;;;5.13;1.98;;;5.10;71.80;;;;;;4880341;29;20065;-86
2021/04/06 10:56:27;;;;;;;5.35;1.88;;;5.30;72.20;;;;;;4881337;29;20044;-84
2021/04/06 10:59:05;;;;;;;5.78;1.40;;;5.60;72.70;;;;;;4880723;29;20048;-85
2021/04/06 11:01:48;;;;;;;3.55;1.08;;;5.70;70.70;;;;;;4881342;29;20463;-86
2021/04/06 11:04:26;;;;;;;5.60;1.35;;;5.70;69.60;;;;;;4880298;29;20407;-85
2021/04/06 11:06:58;;;;;;;11.27;1.70;;;6.10;69.40;;;;;;4880652;29;20048;-84
2021/04/06 11:09:26;;;;;;;12.77;3.88;;;6.00;65.10;;;;;;4879950;29;20074;-84
2021/04/06 11:11:55;;;;;;;15.93;6.55;;;5.30;62.90;;;;;;4880522;29;20064;-84
2021/04/06 11:14:25;;;;;;;6.55;1.73;;;4.90;64.30;;;;;;4880561;29;20045;-84
2021/04/06 11:16:53;;;;;;;3.40;0.98;;;4.40;70.30;;;;;;4879987;29;20045;-84
2021/04/06 11:19:31;;;;;;;6.82;3.25;;;3.30;86.50;;;;;;4880089;29;20029;-85
2021/04/06 11:22:03;;;;;;;4.00;1.52;;;2.10;99.90;;;;;;4880501;29;20053;-84
2021/04/06 11:24:31;;;;;;;4.18;1.65;;;1.90;99.90;;;;;;4880653;29;20044;-84
2021/04/06 11:26:58;;;;;;;4.90;1.55;;;1.70;99.90;;;;;;4880273;29;20036;-82
2021/04/06 11:29:29;;;;;;;3.47;0.95;;;1.70;99.90;;;;;;4880036;29;20048;-81
2021/04/06 11:31:58;;;;;;;14.75;5.28;;;1.80;99.90;;;;;;4879746;29;20041;-81
2021/04/06 11:34:25;;;;;;;11.40;3.83;;;2.00;99.90;;;;;;4880389;29;20029;-83
2021/04/06 11:36:52;;;;;;;4.20;1.48;;;2.30;99.90;;;;;;4879663;29;20092;-83
2021/04/06 11:39:20;;;;;;;6.15;1.52;;;2.50;99.90;;;;;;4880406;29;20410;-81
2021/04/06 11:41:50;;;;;;;5.63;1.92;;;2.70;99.90;;;;;;4878265;29;20044;-81
2021/04/06 11:44:17;;;;;;;10.70;3.63;;;2.70;99.90;;;;;;4879589;29;20037;-81
2021/04/06 11:46:45;;;;;;;13.20;4.22;;;3.00;99.90;;;;;;4880013;29;20029;-79
2021/04/06 11:49:13;;;;;;;10.48;5.40;;;3.30;99.90;;;;;;4879848;29;20495;-81
2021/04/06 11:51:40;;;;;;;10.70;5.15;;;3.70;99.90;;;;;;4878123;29;20052;-82
2021/04/06 11:54:08;;;;;;;11.40;5.32;;;4.30;99.90;;;;;;4879441;29;20044;-83
2021/04/06 11:56:35;;;;;;;8.20;2.60;;;4.90;99.90;;;;;;4879927;29;20490;-82
2021/04/06 11:59:01;;;;;;;7.60;2.80;;;5.20;99.90;;;;;;4879601;29;20391;-82
2021/04/06 12:01:28;;;;;;;9.55;4.28;;;5.60;97.40;;;;;;4881509;29;20060;-82
2021/04/06 12:03:55;;;;;;;9.02;7.22;;;6.20;95.30;;;;;;4882101;29;20471;-82
2021/04/06 12:06:23;;;;;;;7.90;3.55;;;6.40;92.20;;;;;;4894063;29;20387;-83
2021/04/06 12:08:49;;;;;;;6.32;3.08;;;6.80;82.00;;;;;;4887634;29;20033;-82
2021/04/06 12:11:15;;;;;;;4.90;2.55;;;6.60;78.50;;;;;;4896705;29;20032;-82
2021/04/06 12:13:43;;;;;;;5.07;1.75;;;6.10;76.90;;;;;;4886257;29;20032;-82
2021/04/06 12:16:09;;;;;;;5.28;2.47;;;6.20;84.70;;;;;;4888359;29;20028;-83
2021/04/06 12:18:36;;;;;;;6.57;3.17;;;6.50;86.80;;;;;;4898666;29;20040;-84
2021/04/06 12:21:02;;;;;;;8.00;4.22;;;7.00;84.50;;;;;;4882879;29;20041;-82
2021/04/06 12:23:28;;;;;;;6.45;3.50;;;7.10;79.20;;;;;;4888593;29;20048;-82
2021/04/06 12:25:54;;;;;;;7.38;3.40;;;7.40;70.00;;;;;;4891980;29;20398;-82
2021/04/06 12:28:21;;;;;;;4.45;2.30;;;7.40;79.30;;;;;;4882379;29;20041;-82
2021/04/06 12:30:47;;;;;;;3.58;1.33;;;7.50;78.10;;;;;;4882888;29;20036;-85
2021/04/06 12:33:14;;;;;;;6.20;2.35;;;7.20;75.30;;;;;;4881171;29;20041;-80
2021/04/06 12:35:40;;;;;;;5.28;2.85;;;6.60;67.50;;;;;;4883099;29;20037;-82
2021/04/06 12:38:06;;;;;;;4.32;1.88;;;6.00;68.10;;;;;;4884320;29;20024;-81
2021/04/06 12:40:33;;;;;;;9.00;3.47;;;5.90;70.90;;;;;;4888204;29;20044;-83
2021/04/06 12:42:59;;;;;;;4.18;2.50;;;5.80;67.60;;;;;;4882733;29;20030;-82
2021/04/06 12:45:26;;;;;;;3.35;1.27;;;5.70;68.50;;;;;;4889961;29;20421;-83
2021/04/06 12:47:53;;;;;;;4.78;2.55;;;6.10;69.50;;;;;;4900717;29;20371;-82
2021/04/06 12:50:22;;;;;;;7.82;2.60;;;6.40;67.50;;;;;;4896020;29;20053;-84
2021/04/06 12:52:50;;;;;;;4.70;1.63;;;6.80;67.40;;;;;;4880688;29;20055;-84
2021/04/06 12:55:16;;;;;;;1.95;0.75;;;6.80;67.20;;;;;;4888633;29;20130;-83
2021/04/06 12:57:43;;;;;;;4.40;1.23;;;6.70;61.40;;;;;;4895915;29;20410;-83
2021/04/06 13:00:11;;;;;;;2.72;1.52;;;7.00;63.60;;;;;;4882060;29;20045;-82
2021/04/06 13:02:37;;;;;;;2.15;0.93;;;7.40;62.70;;;;;;4882835;29;20056;-84
2021/04/06 13:05:05;;;;;;;1.48;0.30;;;7.30;60.50;;;;;;4880963;29;20040;-84
2021/04/06 13:07:32;;;;;;;0.47;0.30;;;7.40;54.00;;;;;;4899481;29;20059;-84
2021/04/06 13:09:58;;;;;;;1.73;0.40;;;7.40;53.60;;;;;;4902279;29;20032;-84
2021/04/06 13:12:25;;;;;;;2.17;0.40;;;7.80;54.40;;;;;;4894096;29;20048;-83